Solicitamos su permiso para obtener datos estadísticos de su navegación en esta web, en cumplimiento del Real Decreto-ley 13/2012. Si continúa navegando consideramos que acepta el uso de cookies. OK | Más información

AIRPORT MAP

METAR AND TAF INFORMATION

METAR FOR EGPH
ADDS - METARS form results

(1732 UTC 21 November 2017)
Data provider http://aviationweather.gov/adds/metars/
 
METAR text: EGPH 211720Z 22014KT 9999 -RA FEW023TCU SCT045 12/11 Q0993 RERA
Conditions at: EGPH (EDINBURGH AIRPOR, GB) observed 1720 UTC 21 November 2017
Temperature: 12.0°C (54°F)
Dewpoint: 11.0°C (52°F) [RH = 94%]
Pressure (altimeter): 29.32 inches Hg (993.0 mb)
Winds: from the SW (220 degrees) at 16 MPH (14 knots; 7.3 m/s)
Visibility: 6 or more miles (10+ km)
Ceiling: at least 12,000 feet AGL
Clouds: few clouds at 2300 feet AGL
scattered clouds at 4500 feet AGL
Weather: -RA  (light rain)

METAR text: EGPH 211650Z 23016KT 9999 8000W -RA FEW023 12/10 Q0993
Conditions at: EGPH (EDINBURGH AIRPOR, GB) observed 1650 UTC 21 November 2017
Temperature: 12.0°C (54°F)
Dewpoint: 10.0°C (50°F) [RH = 88%]
Pressure (altimeter): 29.32 inches Hg (993.0 mb)
Winds: from the SW (230 degrees) at 18 MPH (16 knots; 8.3 m/s)
Visibility: 6 or more miles (10+ km)
Ceiling: at least 12,000 feet AGL
Clouds: few clouds at 2300 feet AGL
Weather: -RA  (light rain)

Forecast for: EGPH (EDINBURGH AIRPOR, GB)
Text: TAF EGPH 211703Z 2118/2218 22012KT 9999 SCT040
Forecast period: 1800 UTC 21 November 2017 to 0900 UTC 22 November 2017
Forecast type: FROM: standard forecast or significant change
Winds: from the SW (220 degrees) at 14 MPH (12 knots; 6.2 m/s)
Visibility: 6 or more miles (10+ km)
Clouds: scattered clouds at 4000 feet AGL
Weather: no significant weather forecast for this period
Text: TEMPO 2118/2206 23018G28KT 7000 -RADZ BKN012
Forecast period: 1800 UTC 21 November 2017 to 0600 UTC 22 November 2017
Forecast type: TEMPORARY: The following changes expected for less than half the time period
Winds: from the SW (230 degrees) at 21 MPH (18 knots; 9.4 m/s)
gusting to 32 MPH (28 knots; 14.6 m/s)
Visibility: 4 miles (7 km)
Ceiling: 1200 feet AGL
Clouds: broken clouds at 1200 feet AGL
Weather: -RA -DZ  (light rain, light drizzle)
Text: BECMG 2209/2212 05008KT
Forecast period: 0900 to 1800 UTC 22 November 2017
Forecast type: BECOMING: Conditions expected to become as follows by 1200 UTC 22 November 2017
Winds: from the NE (50 degrees) at 9 MPH (8 knots; 4.2 m/s)
Visibility: 6 or more miles (10+ km)
Clouds: scattered clouds at 4000 feet AGL
Weather: no significant weather forecast for this period
Text: TEMPO 2210/2218 4000 RADZ BKN006
Forecast period: 1000 to 1800 UTC 22 November 2017
Forecast type: TEMPORARY: The following changes expected for less than half the time period
Visibility: 2.49 miles (4.01 km)
Ceiling: 600 feet AGL
Clouds: broken clouds at 600 feet AGL
Weather: RA DZ  (rain, drizzle)

}